createdAt,value
2023-04-16T00:01:27.426Z,9.08
2023-04-16T00:03:57.994Z,9.07
2023-04-16T00:06:37.944Z,9.08
2023-04-16T00:09:07.274Z,9.09
2023-04-16T00:11:33.964Z,9.06
2023-04-16T00:14:00.546Z,9.07
2023-04-16T00:16:27.775Z,9.08
2023-04-16T00:18:57.331Z,9.06
2023-04-16T00:21:23.801Z,9.00
2023-04-16T00:23:50.323Z,9.02
2023-04-16T00:26:16.881Z,9.03
2023-04-16T00:28:43.335Z,9.01
2023-04-16T00:31:10.447Z,8.99
2023-04-16T00:33:43.303Z,8.93
2023-04-16T00:36:15.919Z,8.97
2023-04-16T00:38:42.423Z,8.96
2023-04-16T00:41:08.910Z,8.93
2023-04-16T00:43:35.357Z,8.95
2023-04-16T00:46:05.683Z,8.90
2023-04-16T00:48:32.898Z,8.87
2023-04-16T00:51:08.125Z,8.86
2023-04-16T00:53:36.677Z,8.86
2023-04-16T00:56:04.915Z,8.87
2023-04-16T00:58:32.482Z,8.89
2023-04-16T01:01:02.077Z,8.89
2023-04-16T01:03:46.996Z,8.89
2023-04-16T01:06:14.531Z,8.89
2023-04-16T01:08:41.103Z,8.90
2023-04-16T01:11:07.715Z,8.90
2023-04-16T01:13:39.053Z,8.85
2023-04-16T01:16:11.292Z,8.89
2023-04-16T01:18:38.852Z,8.85
2023-04-16T01:21:06.072Z,8.83
2023-04-16T01:23:32.632Z,8.83
2023-04-16T01:26:02.351Z,8.81
2023-04-16T01:28:32.377Z,8.79
2023-04-16T01:30:58.955Z,8.74
2023-04-16T01:33:25.464Z,8.74
2023-04-16T01:35:52.233Z,8.73
2023-04-16T01:38:18.780Z,8.69
2023-04-16T01:40:45.494Z,8.66
2023-04-16T01:43:11.979Z,8.66
2023-04-16T01:45:43.530Z,8.66
2023-04-16T01:48:10.059Z,8.67
2023-04-16T01:50:37.827Z,8.65
2023-04-16T01:53:05.236Z,8.63
2023-04-16T01:55:33.890Z,8.58
2023-04-16T01:58:00.456Z,8.53
2023-04-16T02:00:26.968Z,8.54
2023-04-16T02:02:53.858Z,8.49
2023-04-16T02:05:20.526Z,8.45
2023-04-16T02:07:47.085Z,8.43
2023-04-16T02:10:13.608Z,8.40
2023-04-16T02:12:40.147Z,8.41
2023-04-16T02:15:07.205Z,8.36
2023-04-16T02:17:33.714Z,8.34
2023-04-16T02:20:05.630Z,8.29
2023-04-16T02:22:32.203Z,8.30
2023-04-16T02:24:58.636Z,8.28
2023-04-16T02:27:25.164Z,8.29
2023-04-16T02:29:51.609Z,8.26
2023-04-16T02:32:18.405Z,8.26
2023-04-16T02:34:44.902Z,8.26
2023-04-16T02:37:11.564Z,8.24
2023-04-16T02:39:38.060Z,8.25
2023-04-16T02:42:04.614Z,8.24
2023-04-16T02:44:31.042Z,8.23
2023-04-16T02:46:57.523Z,8.17
2023-04-16T02:49:23.961Z,8.15
2023-04-16T02:51:50.476Z,8.11
2023-04-16T02:54:16.920Z,8.14
2023-04-16T02:56:43.380Z,8.09
2023-04-16T02:59:10.103Z,8.10
2023-04-16T03:01:36.914Z,8.06
2023-04-16T03:04:03.667Z,8.02
2023-04-16T03:06:30.179Z,8.00
2023-04-16T03:08:56.672Z,7.99
2023-04-16T03:11:23.620Z,7.99
2023-04-16T03:13:50.155Z,7.96
2023-04-16T03:16:16.681Z,7.94
2023-04-16T03:18:43.359Z,7.91
2023-04-16T03:21:09.832Z,7.89
2023-04-16T03:23:36.543Z,7.88
2023-04-16T03:26:03.117Z,7.87
2023-04-16T03:28:29.729Z,7.87
2023-04-16T03:30:56.288Z,7.89
2023-04-16T03:33:22.935Z,7.87
2023-04-16T03:35:56.013Z,7.86
2023-04-16T03:38:23.476Z,7.86
2023-04-16T03:40:49.910Z,7.85
2023-04-16T03:43:16.508Z,7.81
2023-04-16T03:45:46.670Z,7.78
2023-04-16T03:48:13.470Z,7.77
2023-04-16T03:50:39.993Z,7.77
2023-04-16T03:53:06.505Z,7.77
2023-04-16T03:55:32.959Z,7.75
2023-04-16T03:58:03.012Z,7.74
2023-04-16T04:00:30.497Z,7.73
2023-04-16T04:02:57.258Z,7.70
2023-04-16T04:05:23.954Z,7.71
2023-04-16T04:07:50.630Z,7.72
2023-04-16T04:10:17.131Z,7.72
2023-04-16T04:12:44.056Z,7.72
2023-04-16T04:15:11.656Z,7.71
2023-04-16T04:17:38.273Z,7.74
2023-04-16T04:20:05.285Z,7.73
2023-04-16T04:22:31.791Z,7.71
2023-04-16T04:24:58.331Z,7.72
2023-04-16T04:27:24.782Z,7.70
2023-04-16T04:29:51.309Z,7.68
2023-04-16T04:32:17.768Z,7.68
2023-04-16T04:34:44.248Z,7.66
2023-04-16T04:37:10.677Z,7.65
2023-04-16T04:39:37.166Z,7.64
2023-04-16T04:42:03.851Z,7.62
2023-04-16T04:44:30.346Z,7.62
2023-04-16T04:46:56.806Z,7.61
2023-04-16T04:49:23.364Z,7.59
2023-04-16T04:51:49.902Z,7.59
2023-04-16T04:54:16.655Z,7.62
2023-04-16T04:56:45.743Z,7.62
2023-04-16T04:59:12.692Z,7.67
2023-04-16T05:01:39.305Z,7.66
2023-04-16T05:04:06.345Z,7.62
2023-04-16T05:06:32.898Z,7.66
2023-04-16T05:08:59.385Z,7.64
2023-04-16T05:11:25.836Z,7.66
2023-04-16T05:13:52.367Z,7.68
2023-04-16T05:16:18.888Z,7.67
2023-04-16T05:18:45.473Z,7.71
2023-04-16T05:21:12.088Z,7.71
2023-04-16T05:23:38.578Z,7.70
2023-04-16T05:26:05.293Z,7.70
2023-04-16T05:28:32.017Z,7.67
2023-04-16T05:30:58.519Z,7.66
2023-04-16T05:33:25.175Z,7.65
2023-04-16T05:35:51.642Z,7.66
2023-04-16T05:38:18.091Z,7.66
2023-04-16T05:40:44.605Z,7.65
2023-04-16T05:43:11.035Z,7.68
2023-04-16T05:45:41.249Z,7.68
2023-04-16T05:48:11.802Z,7.65
2023-04-16T05:50:38.529Z,7.65
2023-04-16T05:53:08.340Z,7.68
2023-04-16T05:55:38.917Z,7.70
2023-04-16T05:58:05.686Z,7.69
2023-04-16T06:00:35.334Z,7.61
2023-04-16T06:03:03.096Z,7.63
2023-04-16T06:05:29.952Z,7.61
2023-04-16T06:07:56.705Z,7.60
2023-04-16T06:10:23.279Z,7.58
2023-04-16T06:12:49.878Z,7.59
2023-04-16T06:15:16.422Z,7.63
2023-04-16T06:17:42.956Z,7.65
2023-04-16T06:20:10.061Z,7.66
2023-04-16T06:22:36.603Z,7.68
2023-04-16T06:25:03.165Z,7.67
2023-04-16T06:27:29.693Z,7.64
2023-04-16T06:29:57.030Z,7.63
2023-04-16T06:32:23.745Z,7.62
2023-04-16T06:34:50.460Z,7.61
2023-04-16T06:37:16.946Z,7.59
2023-04-16T06:39:43.520Z,7.56
2023-04-16T06:42:10.465Z,7.60
2023-04-16T06:44:37.178Z,7.61
2023-04-16T06:47:03.906Z,7.60
2023-04-16T06:49:30.510Z,7.55
2023-04-16T06:51:57.849Z,7.56
2023-04-16T06:54:24.328Z,7.54
2023-04-16T06:56:50.886Z,7.55
2023-04-16T06:59:17.652Z,7.54
2023-04-16T07:01:44.287Z,7.51
2023-04-16T07:04:12.194Z,7.56
2023-04-16T07:06:38.725Z,7.55
2023-04-16T07:09:07.782Z,7.56
2023-04-16T07:11:34.577Z,7.56
2023-04-16T07:14:01.160Z,7.59
2023-04-16T07:16:27.703Z,7.59
2023-04-16T07:18:54.186Z,7.59
2023-04-16T07:21:21.110Z,7.57
2023-04-16T07:23:47.587Z,7.57
2023-04-16T07:26:14.055Z,7.56
2023-04-16T07:28:40.521Z,7.57
2023-04-16T07:31:07.185Z,7.58
2023-04-16T07:33:33.741Z,7.55
2023-04-16T07:36:00.204Z,7.53
2023-04-16T07:38:26.679Z,7.57
2023-04-16T07:40:53.235Z,7.58
2023-04-16T07:43:19.706Z,7.60
2023-04-16T07:45:46.263Z,7.60
2023-04-16T07:48:12.812Z,7.59
2023-04-16T07:50:39.343Z,7.58
2023-04-16T07:53:07.622Z,7.58
2023-04-16T07:55:34.104Z,7.55
2023-04-16T07:58:00.682Z,7.59
2023-04-16T08:00:27.165Z,7.58
2023-04-16T08:02:56.700Z,7.57
2023-04-16T08:05:23.373Z,7.57
2023-04-16T08:07:49.989Z,7.56
2023-04-16T08:10:16.540Z,7.54
2023-04-16T08:12:43.080Z,7.57
2023-04-16T08:15:09.871Z,7.55
2023-04-16T08:17:37.619Z,7.58
2023-04-16T08:20:04.907Z,7.63
2023-04-16T08:22:31.473Z,7.63
2023-04-16T08:24:57.894Z,7.66
2023-04-16T08:27:24.371Z,7.65
2023-04-16T08:29:50.970Z,7.71
2023-04-16T08:32:17.516Z,7.71
2023-04-16T08:34:44.217Z,7.70
2023-04-16T08:37:10.740Z,7.70
2023-04-16T08:39:40.063Z,7.73
2023-04-16T08:42:18.949Z,7.73
2023-04-16T08:44:49.883Z,7.70
2023-04-16T08:47:16.781Z,7.73
2023-04-16T08:49:46.389Z,7.71
2023-04-16T08:52:20.220Z,7.71
2023-04-16T08:54:57.034Z,7.75
2023-04-16T08:57:27.009Z,7.75
2023-04-16T08:59:55.930Z,7.74
2023-04-16T09:02:23.074Z,7.73
2023-04-16T09:04:51.280Z,7.74
2023-04-16T09:07:20.705Z,7.74
2023-04-16T09:09:49.912Z,7.72
2023-04-16T09:12:17.413Z,7.73
2023-04-16T09:14:49.710Z,7.75
2023-04-16T09:17:16.973Z,7.80
2023-04-16T09:19:43.879Z,7.85
2023-04-16T09:22:10.343Z,7.83
2023-04-16T09:24:38.497Z,7.83
2023-04-16T09:27:08.902Z,7.78
2023-04-16T09:29:37.126Z,7.77
2023-04-16T09:32:05.675Z,7.77
2023-04-16T09:34:33.707Z,7.81
2023-04-16T09:37:18.834Z,7.85
2023-04-16T09:39:54.610Z,7.83
2023-04-16T09:42:25.301Z,7.84
2023-04-16T09:44:52.905Z,7.85
2023-04-16T09:47:19.470Z,7.85
2023-04-16T09:49:47.082Z,7.85
2023-04-16T09:52:22.270Z,7.84
2023-04-16T09:54:53.211Z,7.86
2023-04-16T09:57:24.854Z,7.87
2023-04-16T09:59:58.823Z,7.92
2023-04-16T10:02:29.254Z,7.97
2023-04-16T10:04:57.431Z,7.98
2023-04-16T10:07:29.228Z,7.97
2023-04-16T10:09:56.024Z,7.97
2023-04-16T10:12:23.347Z,7.98
2023-04-16T10:14:50.473Z,8.00
2023-04-16T10:17:17.302Z,8.01
2023-04-16T10:19:44.316Z,8.02
2023-04-16T10:22:11.569Z,8.07
2023-04-16T10:24:38.731Z,8.08
2023-04-16T10:27:05.297Z,8.10
2023-04-16T10:29:32.857Z,8.08
2023-04-16T10:32:01.110Z,8.08
2023-04-16T10:34:28.989Z,8.07
2023-04-16T10:36:56.115Z,8.05
2023-04-16T10:39:24.198Z,8.07
2023-04-16T10:42:06.194Z,8.06
2023-04-16T10:44:33.234Z,8.05
2023-04-16T10:47:00.155Z,7.99
2023-04-16T10:49:27.127Z,7.99
2023-04-16T10:52:02.576Z,8.01
2023-04-16T10:54:30.908Z,8.00
2023-04-16T10:57:02.264Z,8.03
2023-04-16T10:59:32.125Z,8.03
2023-04-16T11:02:04.107Z,8.08
2023-04-16T11:04:40.340Z,8.00
2023-04-16T11:07:08.162Z,8.03
2023-04-16T11:09:51.573Z,8.04
2023-04-16T11:12:20.556Z,8.07
2023-04-16T11:14:52.961Z,8.13
2023-04-16T11:17:20.794Z,8.10
2023-04-16T11:19:47.955Z,8.07
2023-04-16T11:22:17.226Z,8.10
2023-04-16T11:24:47.642Z,8.11
2023-04-16T11:27:15.173Z,8.10
2023-04-16T11:29:42.365Z,8.09
2023-04-16T11:32:09.035Z,8.11
2023-04-16T11:34:43.761Z,8.15
2023-04-16T11:37:10.438Z,8.13
2023-04-16T11:39:51.316Z,8.18
2023-04-16T11:42:24.265Z,8.16
2023-04-16T11:45:02.912Z,8.17
2023-04-16T11:47:31.217Z,8.18
2023-04-16T11:49:58.914Z,8.16
2023-04-16T11:52:27.434Z,8.13
2023-04-16T11:54:54.474Z,8.23
2023-04-16T11:57:31.954Z,8.21
2023-04-16T12:00:02.028Z,8.24
2023-04-16T12:02:36.517Z,8.28
2023-04-16T12:05:04.523Z,8.27
2023-04-16T12:07:31.158Z,8.28
2023-04-16T12:10:08.025Z,8.23
2023-04-16T12:12:35.362Z,8.26
2023-04-16T12:15:05.840Z,8.28
2023-04-16T12:17:34.161Z,8.31
2023-04-16T12:20:06.013Z,8.32
2023-04-16T12:22:36.799Z,8.33
2023-04-16T12:25:11.287Z,8.33
2023-04-16T12:27:54.711Z,8.36
2023-04-16T12:30:29.604Z,8.40
2023-04-16T12:33:16.964Z,8.37
2023-04-16T12:35:44.091Z,8.41
2023-04-16T12:38:13.559Z,8.43
2023-04-16T12:40:40.040Z,8.43
2023-04-16T12:43:06.576Z,8.40
2023-04-16T12:45:33.144Z,8.40
2023-04-16T12:47:59.666Z,8.39
2023-04-16T12:50:26.312Z,8.41
2023-04-16T12:52:52.831Z,8.38
2023-04-16T12:55:19.561Z,8.35
2023-04-16T12:57:48.726Z,8.32
2023-04-16T13:00:16.332Z,8.36
2023-04-16T13:02:43.043Z,8.37
2023-04-16T13:05:10.057Z,8.37
2023-04-16T13:07:36.551Z,8.37
2023-04-16T13:10:03.262Z,8.37
2023-04-16T13:12:29.788Z,8.38
2023-04-16T13:14:56.457Z,8.43
2023-04-16T13:17:22.943Z,8.39
2023-04-16T13:19:49.400Z,8.43
2023-04-16T13:22:16.013Z,8.45
2023-04-16T13:24:42.534Z,8.47
2023-04-16T13:27:09.145Z,8.40
2023-04-16T13:29:38.199Z,8.38
2023-04-16T13:32:05.093Z,8.38
2023-04-16T13:34:31.770Z,8.40
2023-04-16T13:36:58.273Z,8.43
2023-04-16T13:39:25.219Z,8.48
2023-04-16T13:41:51.722Z,8.53
2023-04-16T13:44:18.243Z,8.53
2023-04-16T13:46:47.716Z,8.48
2023-04-16T13:49:14.856Z,8.50
2023-04-16T13:51:44.613Z,8.48
2023-04-16T13:54:11.090Z,8.48
2023-04-16T13:56:37.706Z,8.48
2023-04-16T13:59:04.269Z,8.44
2023-04-16T14:01:30.943Z,8.46
2023-04-16T14:04:00.328Z,8.46
2023-04-16T14:06:26.991Z,8.42
2023-04-16T14:08:53.500Z,8.45
2023-04-16T14:11:20.526Z,8.47
2023-04-16T14:13:50.167Z,8.48
2023-04-16T14:16:16.693Z,8.47
2023-04-16T14:18:43.213Z,8.52
2023-04-16T14:21:09.725Z,8.52
2023-04-16T14:23:36.300Z,8.52
2023-04-16T14:26:03.695Z,8.52
2023-04-16T14:28:30.475Z,8.52
2023-04-16T14:30:56.975Z,8.53
2023-04-16T14:33:23.762Z,8.53
2023-04-16T14:35:51.312Z,8.56
2023-04-16T14:38:17.924Z,8.55
2023-04-16T14:40:44.406Z,8.55
2023-04-16T14:43:10.916Z,8.55
2023-04-16T14:45:38.269Z,8.53
2023-04-16T14:48:06.267Z,8.56
2023-04-16T14:50:37.839Z,8.58
2023-04-16T14:53:07.525Z,8.65
2023-04-16T14:55:34.026Z,8.70
2023-04-16T14:58:00.526Z,8.79
2023-04-16T15:00:27.457Z,8.84
2023-04-16T15:02:55.103Z,8.85
2023-04-16T15:05:22.227Z,8.89
2023-04-16T15:07:48.739Z,8.92
2023-04-16T15:10:15.547Z,8.85
2023-04-16T15:12:42.086Z,8.86
2023-04-16T15:15:09.517Z,8.90
2023-04-16T15:17:36.383Z,8.93
2023-04-16T15:20:05.904Z,9.01
2023-04-16T15:22:35.577Z,9.04
2023-04-16T15:25:02.351Z,9.06
2023-04-16T15:27:28.836Z,9.11
2023-04-16T15:29:55.654Z,9.13
2023-04-16T15:32:22.253Z,9.15
2023-04-16T15:34:48.803Z,9.11
2023-04-16T15:37:16.029Z,9.06
2023-04-16T15:39:44.677Z,9.09
2023-04-16T15:42:11.281Z,9.16
2023-04-16T15:44:37.820Z,9.19
2023-04-16T15:47:06.252Z,9.18
2023-04-16T15:49:32.794Z,9.12
2023-04-16T15:51:59.301Z,9.12
2023-04-16T15:54:25.996Z,9.08
2023-04-16T15:56:56.038Z,9.08
2023-04-16T15:59:22.672Z,9.10
2023-04-16T16:01:49.239Z,9.11
2023-04-16T16:04:16.045Z,9.12
2023-04-16T16:06:42.748Z,9.14
2023-04-16T16:09:10.362Z,9.17
2023-04-16T16:11:38.391Z,9.20
2023-04-16T16:14:04.864Z,9.20
2023-04-16T16:16:32.644Z,9.17
2023-04-16T16:18:59.234Z,9.19
2023-04-16T16:21:29.544Z,9.20
2023-04-16T16:23:56.154Z,9.23
2023-04-16T16:26:23.058Z,9.22
2023-04-16T16:28:49.635Z,9.21
2023-04-16T16:31:16.250Z,9.22
2023-04-16T16:33:42.759Z,9.23
2023-04-16T16:36:12.470Z,9.24
2023-04-16T16:38:42.442Z,9.22
2023-04-16T16:41:08.965Z,9.21
2023-04-16T16:43:39.033Z,9.21
2023-04-16T16:46:07.330Z,9.20
2023-04-16T16:48:33.836Z,9.21
2023-04-16T16:51:00.591Z,9.18
2023-04-16T16:53:27.330Z,9.19
2023-04-16T16:55:53.818Z,9.22
2023-04-16T16:58:20.797Z,9.23
2023-04-16T17:00:47.323Z,9.22
2023-04-16T17:03:14.072Z,9.23
2023-04-16T17:05:40.702Z,9.23
2023-04-16T17:08:07.266Z,9.23
2023-04-16T17:10:35.189Z,9.22
2023-04-16T17:13:01.693Z,9.21
2023-04-16T17:15:28.281Z,9.22
2023-04-16T17:17:54.950Z,9.20
2023-04-16T17:20:21.556Z,9.23
2023-04-16T17:22:48.139Z,9.22
2023-04-16T17:25:17.450Z,9.23
2023-04-16T17:27:44.059Z,9.24
2023-04-16T17:30:10.899Z,9.23
2023-04-16T17:32:37.443Z,9.23
2023-04-16T17:35:04.572Z,9.25
2023-04-16T17:37:31.255Z,9.24
2023-04-16T17:40:00.485Z,9.24
2023-04-16T17:42:26.995Z,9.23
2023-04-16T17:44:56.853Z,9.22
2023-04-16T17:47:23.434Z,9.20
2023-04-16T17:49:53.201Z,9.20
2023-04-16T17:52:21.289Z,9.19
2023-04-16T17:54:48.615Z,9.18
2023-04-16T17:57:15.510Z,9.16
2023-04-16T17:59:42.707Z,9.18
2023-04-16T18:02:09.376Z,9.18
2023-04-16T18:04:36.020Z,9.18
2023-04-16T18:07:02.573Z,9.16
2023-04-16T18:09:29.058Z,9.14
2023-04-16T18:11:58.291Z,9.13
2023-04-16T18:14:25.187Z,9.13
2023-04-16T18:16:51.711Z,9.13
2023-04-16T18:19:18.310Z,9.14
2023-04-16T18:21:45.059Z,9.14
2023-04-16T18:24:11.874Z,9.14
2023-04-16T18:26:40.742Z,9.13
2023-04-16T18:29:07.750Z,9.13
2023-04-16T18:31:34.235Z,9.11
2023-04-16T18:34:03.396Z,9.12
2023-04-16T18:36:29.913Z,9.13
2023-04-16T18:39:02.202Z,9.14
2023-04-16T18:41:29.860Z,9.14
2023-04-16T18:43:56.574Z,9.12
2023-04-16T18:46:23.130Z,9.18
2023-04-16T18:48:49.779Z,9.35
2023-04-16T18:51:16.727Z,9.34
2023-04-16T18:53:46.075Z,9.31
2023-04-16T18:56:12.843Z,9.13
2023-04-16T18:58:39.442Z,9.01
2023-04-16T19:01:11.035Z,8.93
2023-04-16T19:03:38.067Z,8.87
2023-04-16T19:06:04.948Z,8.83
2023-04-16T19:08:31.629Z,8.79
2023-04-16T19:10:58.076Z,8.78
2023-04-16T19:13:24.549Z,8.77
2023-04-16T19:15:51.040Z,8.76
2023-04-16T19:18:17.503Z,8.73
2023-04-16T19:20:44.043Z,8.73
2023-04-16T19:23:10.548Z,8.74
2023-04-16T19:25:37.284Z,8.73
2023-04-16T19:28:06.641Z,8.72
2023-04-16T19:30:36.059Z,8.70
2023-04-16T19:33:02.679Z,8.73
2023-04-16T19:35:30.127Z,8.74
2023-04-16T19:37:58.237Z,8.73
2023-04-16T19:40:24.754Z,8.75
2023-04-16T19:42:57.645Z,8.79
2023-04-16T19:45:27.431Z,8.82
2023-04-16T19:47:53.912Z,8.82
2023-04-16T19:50:22.127Z,8.86
2023-04-16T19:52:48.548Z,8.87
2023-04-16T19:55:15.331Z,8.86
2023-04-16T19:57:41.789Z,8.84
2023-04-16T20:00:11.197Z,8.86
2023-04-16T20:02:38.176Z,8.82
2023-04-16T20:05:05.366Z,8.85
2023-04-16T20:07:31.843Z,8.84
2023-04-16T20:09:58.537Z,8.85
2023-04-16T20:12:25.241Z,8.85
2023-04-16T20:14:51.886Z,8.83
2023-04-16T20:17:19.837Z,8.82
2023-04-16T20:19:49.499Z,8.82
2023-04-16T20:22:18.203Z,8.81
2023-04-16T20:24:47.890Z,8.82
2023-04-16T20:27:19.434Z,8.83
2023-04-16T20:29:48.286Z,8.83
2023-04-16T20:32:14.811Z,8.77
2023-04-16T20:34:41.270Z,8.78
2023-04-16T20:37:07.732Z,8.76
2023-04-16T20:39:36.059Z,8.76
2023-04-16T20:42:04.248Z,8.75
2023-04-16T20:44:41.470Z,8.77
2023-04-16T20:47:18.230Z,8.74
2023-04-16T20:49:52.592Z,8.73
2023-04-16T20:52:21.801Z,8.71
2023-04-16T20:54:48.327Z,8.69
2023-04-16T20:57:14.906Z,8.67
2023-04-16T20:59:41.466Z,8.70
2023-04-16T21:02:08.128Z,8.69
2023-04-16T21:04:34.920Z,8.68
2023-04-16T21:07:09.600Z,8.68
2023-04-16T21:09:39.391Z,8.67
2023-04-16T21:12:09.580Z,8.66
2023-04-16T21:14:39.473Z,8.64
2023-04-16T21:17:05.949Z,8.62
2023-04-16T21:19:32.430Z,8.63
2023-04-16T21:21:58.902Z,8.65
2023-04-16T21:24:25.450Z,8.67
2023-04-16T21:26:51.941Z,8.64
2023-04-16T21:29:19.592Z,8.67
2023-04-16T21:31:46.299Z,8.67
2023-04-16T21:34:12.837Z,8.67
2023-04-16T21:36:39.360Z,8.67
2023-04-16T21:39:05.869Z,8.65
2023-04-16T21:41:32.615Z,8.66
2023-04-16T21:43:59.672Z,8.63
2023-04-16T21:46:29.356Z,8.61
2023-04-16T21:48:57.406Z,8.58
2023-04-16T21:51:29.414Z,8.60
2023-04-16T21:53:56.723Z,8.59
2023-04-16T21:56:30.272Z,8.58
2023-04-16T21:58:56.735Z,8.58
2023-04-16T22:01:23.330Z,8.57
2023-04-16T22:03:51.927Z,8.57
2023-04-16T22:06:19.033Z,8.56
2023-04-16T22:08:48.458Z,8.56
2023-04-16T22:11:15.438Z,8.54
2023-04-16T22:13:42.466Z,8.55
2023-04-16T22:16:11.361Z,8.57
2023-04-16T22:18:38.769Z,8.56
2023-04-16T22:21:05.555Z,8.56
2023-04-16T22:23:32.177Z,8.58
2023-04-16T22:25:58.634Z,8.54
2023-04-16T22:28:25.329Z,8.55
2023-04-16T22:30:54.774Z,8.54
2023-04-16T22:33:24.136Z,8.52
2023-04-16T22:35:50.681Z,8.48
2023-04-16T22:38:17.227Z,8.46
2023-04-16T22:40:43.662Z,8.43
2023-04-16T22:43:10.394Z,8.41
2023-04-16T22:45:40.121Z,8.42
2023-04-16T22:48:12.450Z,8.42
2023-04-16T22:50:41.762Z,8.40
2023-04-16T22:53:08.314Z,8.40
2023-04-16T22:55:34.764Z,8.39
2023-04-16T22:58:01.707Z,8.41
2023-04-16T23:00:28.427Z,8.40
2023-04-16T23:02:55.004Z,8.40
2023-04-16T23:05:23.610Z,8.40
2023-04-16T23:07:50.099Z,8.38
2023-04-16T23:10:16.626Z,8.37
2023-04-16T23:12:43.102Z,8.37
2023-04-16T23:15:10.062Z,8.37
2023-04-16T23:17:40.882Z,8.37
2023-04-16T23:20:12.151Z,8.37
2023-04-16T23:22:41.931Z,8.36
2023-04-16T23:25:08.975Z,8.37
2023-04-16T23:27:35.928Z,8.36
2023-04-16T23:30:03.519Z,8.36
2023-04-16T23:32:30.008Z,8.34
2023-04-16T23:34:56.509Z,8.32
2023-04-16T23:37:23.173Z,8.31
2023-04-16T23:39:52.271Z,8.30
2023-04-16T23:42:19.145Z,8.31
2023-04-16T23:44:51.506Z,8.33
2023-04-16T23:47:18.069Z,8.30
2023-04-16T23:49:46.990Z,8.29
2023-04-16T23:52:13.447Z,8.28
2023-04-16T23:54:40.015Z,8.27
2023-04-16T23:57:06.491Z,8.26
2023-04-16T23:59:33.004Z,8.25
